createdAt,value
2022-10-05T00:02:31.707Z,24.37
2022-10-05T00:05:02.401Z,25.75
2022-10-05T00:07:33.138Z,26.33
2022-10-05T00:10:05.187Z,25.23
2022-10-05T00:12:35.736Z,27.42
2022-10-05T00:15:08.803Z,34.38
2022-10-05T00:17:41.288Z,30.57
2022-10-05T00:20:14.319Z,29.55
2022-10-05T00:22:45.233Z,33.33
2022-10-05T00:25:18.477Z,29.60
2022-10-05T00:27:51.601Z,26.15
2022-10-05T00:30:24.502Z,29.02
2022-10-05T00:32:59.444Z,31.68
2022-10-05T00:35:28.926Z,26.80
2022-10-05T00:37:59.566Z,27.50
2022-10-05T00:40:31.043Z,28.60
2022-10-05T00:43:04.532Z,23.83
2022-10-05T00:45:37.666Z,23.00
2022-10-05T00:48:10.822Z,24.25
2022-10-05T00:50:42.324Z,19.70
2022-10-05T00:53:15.390Z,19.85
2022-10-05T00:55:48.529Z,20.40
2022-10-05T00:58:21.673Z,17.55
2022-10-05T01:00:53.156Z,21.82
2022-10-05T01:03:26.354Z,20.17
2022-10-05T01:05:57.773Z,21.15
2022-10-05T01:08:30.803Z,24.30
2022-10-05T01:11:03.847Z,22.35
2022-10-05T01:13:35.264Z,18.80
2022-10-05T01:16:07.095Z,17.05
2022-10-05T01:18:40.299Z,18.87
2022-10-05T01:21:13.692Z,18.87
2022-10-05T01:23:47.077Z,16.40
2022-10-05T01:26:20.364Z,16.77
2022-10-05T01:28:53.482Z,16.27
2022-10-05T01:31:25.042Z,20.10
2022-10-05T01:33:58.614Z,21.52
2022-10-05T01:36:31.831Z,19.65
2022-10-05T01:39:03.265Z,16.25
2022-10-05T01:41:36.272Z,16.25
2022-10-05T01:44:09.503Z,13.90
2022-10-05T01:46:47.418Z,14.98
2022-10-05T01:49:21.145Z,13.38
2022-10-05T01:51:53.035Z,11.18
2022-10-05T01:54:26.302Z,12.60
2022-10-05T01:56:59.329Z,10.80
2022-10-05T01:59:30.738Z,11.83
2022-10-05T02:02:04.296Z,11.35
2022-10-05T02:05:01.010Z,9.75
2022-10-05T02:07:12.668Z,11.30
2022-10-05T02:09:46.165Z,10.65
2022-10-05T02:12:19.566Z,8.00
2022-10-05T02:14:52.627Z,9.60
2022-10-05T02:17:25.752Z,10.53
2022-10-05T02:19:59.101Z,9.63
2022-10-05T02:22:32.141Z,8.08
2022-10-05T02:25:05.141Z,9.60
2022-10-05T02:27:38.158Z,7.70
2022-10-05T02:30:14.222Z,8.95
2022-10-05T02:32:45.770Z,7.97
2022-10-05T02:35:18.802Z,7.83
2022-10-05T02:37:51.329Z,7.92
2022-10-05T02:40:24.453Z,9.88
2022-10-05T02:42:57.454Z,9.00
2022-10-05T02:45:31.322Z,7.85
2022-10-05T02:48:04.449Z,9.63
2022-10-05T02:50:36.099Z,6.97
2022-10-05T02:53:09.244Z,8.48
2022-10-05T02:55:42.268Z,5.58
2022-10-05T02:58:14.251Z,6.50
2022-10-05T03:00:47.784Z,7.50
2022-10-05T03:03:19.495Z,4.83
2022-10-05T03:05:52.812Z,5.22
2022-10-05T03:08:26.036Z,4.47
2022-10-05T03:10:59.285Z,5.47
2022-10-05T03:13:32.889Z,6.83
2022-10-05T03:16:04.562Z,5.67
2022-10-05T03:18:38.147Z,5.30
2022-10-05T03:21:11.530Z,4.40
2022-10-05T03:23:44.944Z,6.20
2022-10-05T03:26:18.086Z,6.47
2022-10-05T03:28:51.631Z,5.28
2022-10-05T03:31:24.962Z,8.48
2022-10-05T03:33:58.050Z,7.05
2022-10-05T03:36:31.514Z,4.47
2022-10-05T03:39:01.422Z,6.00
2022-10-05T03:41:34.439Z,5.40
2022-10-05T03:44:07.429Z,5.65
2022-10-05T03:46:41.614Z,5.22
2022-10-05T03:49:13.177Z,7.12
2022-10-05T03:51:46.272Z,6.65
2022-10-05T03:54:17.938Z,5.22
2022-10-05T03:56:50.932Z,9.13
2022-10-05T03:59:26.783Z,4.03
2022-10-05T04:01:59.186Z,4.37
2022-10-05T04:04:32.366Z,4.03
2022-10-05T04:07:04.136Z,6.65
2022-10-05T04:09:37.793Z,3.60
2022-10-05T04:12:10.445Z,4.80
2022-10-05T04:14:43.969Z,3.37
2022-10-05T04:17:17.167Z,5.72
2022-10-05T04:19:50.456Z,3.45
2022-10-05T04:22:22.292Z,5.08
2022-10-05T04:24:54.078Z,4.95
2022-10-05T04:27:45.396Z,5.95
2022-10-05T04:30:18.649Z,6.33
2022-10-05T04:32:51.655Z,4.72
2022-10-05T04:35:24.705Z,4.17
2022-10-05T04:37:57.717Z,5.22
2022-10-05T04:40:30.786Z,4.35
2022-10-05T04:43:03.875Z,4.22
2022-10-05T04:45:37.042Z,3.75
2022-10-05T04:48:10.393Z,3.75
2022-10-05T04:50:43.513Z,4.78
2022-10-05T04:53:16.911Z,4.08
2022-10-05T04:55:50.280Z,3.72
2022-10-05T04:58:23.326Z,4.95
2022-10-05T05:00:56.605Z,4.78
2022-10-05T05:03:30.961Z,4.47
2022-10-05T05:06:18.575Z,4.05
2022-10-05T05:08:38.564Z,5.85
2022-10-05T05:11:16.764Z,4.22
2022-10-05T05:13:47.389Z,3.90
2022-10-05T05:16:21.124Z,4.47
2022-10-05T05:18:54.547Z,6.28
2022-10-05T05:21:27.927Z,5.20
2022-10-05T05:24:00.989Z,4.92
2022-10-05T05:26:38.782Z,5.83
2022-10-05T05:29:09.193Z,6.37
2022-10-05T05:31:40.841Z,4.10
2022-10-05T05:34:14.096Z,6.83
2022-10-05T05:36:47.288Z,6.17
2022-10-05T05:39:21.216Z,6.03
2022-10-05T05:41:54.611Z,5.08
2022-10-05T05:44:28.420Z,4.22
2022-10-05T05:47:04.468Z,4.47
2022-10-05T05:49:36.167Z,3.77
2022-10-05T05:52:09.532Z,5.03
2022-10-05T05:54:43.035Z,6.05
2022-10-05T05:57:14.774Z,3.60
2022-10-05T05:59:46.424Z,4.72
2022-10-05T06:02:19.503Z,4.60
2022-10-05T06:04:52.708Z,4.65
2022-10-05T06:07:30.320Z,3.60
2022-10-05T06:10:00.744Z,6.17
2022-10-05T06:12:34.127Z,5.75
2022-10-05T06:15:07.246Z,5.08
2022-10-05T06:17:40.309Z,5.62
2022-10-05T06:20:14.812Z,5.85
2022-10-05T06:22:48.170Z,4.12
2022-10-05T06:25:19.898Z,5.97
2022-10-05T06:27:53.621Z,4.87
2022-10-05T06:30:25.405Z,3.55
2022-10-05T06:32:58.534Z,4.92
2022-10-05T06:35:30.702Z,5.75
2022-10-05T06:38:03.746Z,3.00
2022-10-05T06:40:37.294Z,4.15
2022-10-05T06:43:10.597Z,9.13
2022-10-05T06:45:44.007Z,4.30
2022-10-05T06:48:17.499Z,4.33
2022-10-05T06:50:50.746Z,4.47
2022-10-05T06:53:22.621Z,5.12
2022-10-05T06:55:55.667Z,5.87
2022-10-05T06:58:27.072Z,5.85
2022-10-05T07:01:00.530Z,4.15
2022-10-05T07:03:32.554Z,3.80
2022-10-05T07:06:06.159Z,3.22
2022-10-05T07:08:37.785Z,4.35
2022-10-05T07:11:10.911Z,6.30
2022-10-05T07:13:42.760Z,3.12
2022-10-05T07:16:14.559Z,4.85
2022-10-05T07:18:47.600Z,4.87
2022-10-05T07:21:19.262Z,5.33
2022-10-05T07:23:52.350Z,2.80
2022-10-05T07:26:25.543Z,3.67
2022-10-05T07:28:57.253Z,4.65
2022-10-05T07:31:29.881Z,3.72
2022-10-05T07:34:03.110Z,4.60
2022-10-05T07:36:39.927Z,5.05
2022-10-05T07:39:13.136Z,4.85
2022-10-05T07:41:48.079Z,4.30
2022-10-05T07:44:21.575Z,3.85
2022-10-05T07:46:53.220Z,3.95
2022-10-05T07:49:26.730Z,4.08
2022-10-05T07:51:59.860Z,6.05
2022-10-05T07:54:32.851Z,3.87
2022-10-05T07:57:05.592Z,3.42
2022-10-05T07:59:38.818Z,3.35
2022-10-05T08:02:11.996Z,3.90
2022-10-05T08:04:54.205Z,4.35
2022-10-05T08:07:25.958Z,4.55
2022-10-05T08:09:58.948Z,3.50
2022-10-05T08:12:32.764Z,3.58
2022-10-05T08:15:24.131Z,5.12
2022-10-05T08:17:55.909Z,4.08
2022-10-05T08:20:29.058Z,4.90
2022-10-05T08:23:02.271Z,3.05
2022-10-05T08:25:36.096Z,4.80
2022-10-05T08:28:09.714Z,2.85
2022-10-05T08:30:42.735Z,4.08
2022-10-05T08:33:16.252Z,6.72
2022-10-05T08:35:49.278Z,4.25
2022-10-05T08:38:22.774Z,4.17
2022-10-05T08:40:55.050Z,4.00
2022-10-05T08:43:30.644Z,4.15
2022-10-05T08:46:03.008Z,4.00
2022-10-05T08:48:37.790Z,3.87
2022-10-05T08:51:11.291Z,4.20
2022-10-05T08:53:44.277Z,5.15
2022-10-05T08:56:19.874Z,4.97
2022-10-05T08:58:50.094Z,3.17
2022-10-05T09:01:23.250Z,5.45
2022-10-05T09:03:56.680Z,4.33
2022-10-05T09:06:28.130Z,2.80
2022-10-05T09:08:59.652Z,3.27
2022-10-05T09:11:32.541Z,4.03
2022-10-05T09:14:05.822Z,4.72
2022-10-05T09:16:38.834Z,4.80
2022-10-05T09:19:11.848Z,5.53
2022-10-05T09:21:45.118Z,4.00
2022-10-05T09:24:15.617Z,4.75
2022-10-05T09:26:48.824Z,5.87
2022-10-05T09:29:20.756Z,3.40
2022-10-05T09:31:52.631Z,5.62
2022-10-05T09:34:25.520Z,5.42
2022-10-05T09:37:00.053Z,3.77
2022-10-05T09:39:33.157Z,3.98
2022-10-05T09:42:06.432Z,4.72
2022-10-05T09:44:40.761Z,5.35
2022-10-05T09:47:15.160Z,7.28
2022-10-05T09:49:48.867Z,5.50
2022-10-05T09:52:20.931Z,3.90
2022-10-05T09:54:54.306Z,5.00
2022-10-05T09:57:27.814Z,3.95
2022-10-05T10:00:01.374Z,4.22
2022-10-05T10:02:32.966Z,4.80
2022-10-05T10:05:07.301Z,4.92
2022-10-05T10:07:41.108Z,3.85
2022-10-05T10:10:14.893Z,3.47
2022-10-05T10:12:44.758Z,3.42
2022-10-05T10:15:18.945Z,5.17
2022-10-05T10:17:52.167Z,6.45
2022-10-05T10:20:26.146Z,5.10
2022-10-05T10:22:59.268Z,4.17
2022-10-05T10:25:32.854Z,3.83
2022-10-05T10:28:06.310Z,4.40
2022-10-05T10:30:43.148Z,5.15
2022-10-05T10:33:16.306Z,5.95
2022-10-05T10:35:49.990Z,4.35
2022-10-05T10:38:24.831Z,6.80
2022-10-05T10:40:58.139Z,5.12
2022-10-05T10:43:30.550Z,5.03
2022-10-05T10:46:02.118Z,4.90
2022-10-05T10:48:32.797Z,4.53
2022-10-05T10:51:04.282Z,5.03
2022-10-05T10:53:36.105Z,5.35
2022-10-05T10:56:09.918Z,4.37
2022-10-05T10:58:43.294Z,6.25
2022-10-05T11:01:16.770Z,7.53
2022-10-05T11:03:49.915Z,5.80
2022-10-05T11:06:23.163Z,5.95
2022-10-05T11:08:56.330Z,7.37
2022-10-05T11:11:29.984Z,13.10
2022-10-05T11:14:04.861Z,7.50
2022-10-05T11:16:38.706Z,5.70
2022-10-05T11:19:10.689Z,6.28
2022-10-05T11:21:44.396Z,6.37
2022-10-05T11:24:17.538Z,6.72
2022-10-05T11:26:51.387Z,6.40
2022-10-05T11:29:25.017Z,9.40
2022-10-05T11:31:59.003Z,8.80
2022-10-05T11:34:32.455Z,7.67
2022-10-05T11:37:06.416Z,8.25
2022-10-05T11:39:39.993Z,6.83
2022-10-05T11:42:13.172Z,7.65
2022-10-05T11:44:46.295Z,7.03
2022-10-05T11:47:19.781Z,5.40
2022-10-05T11:49:49.827Z,6.17
2022-10-05T11:52:19.621Z,6.53
2022-10-05T11:55:09.968Z,9.45
2022-10-05T11:57:28.681Z,5.97
2022-10-05T12:00:00.737Z,6.35
2022-10-05T12:02:32.848Z,6.53
2022-10-05T12:05:06.395Z,10.93
2022-10-05T12:07:39.899Z,6.37
2022-10-05T12:10:30.216Z,6.92
2022-10-05T12:13:04.204Z,8.50
2022-10-05T12:15:37.344Z,8.28
2022-10-05T12:18:10.489Z,7.70
2022-10-05T12:20:43.763Z,11.22
2022-10-05T12:23:15.629Z,5.83
2022-10-05T12:25:49.355Z,5.40
2022-10-05T12:28:22.434Z,6.80
2022-10-05T12:30:54.197Z,7.40
2022-10-05T12:33:27.575Z,6.62
2022-10-05T12:36:00.737Z,5.75
2022-10-05T12:38:34.123Z,6.25
2022-10-05T12:41:10.825Z,10.08
2022-10-05T12:43:44.258Z,9.90
2022-10-05T12:46:18.777Z,8.65
2022-10-05T12:48:53.409Z,11.28
2022-10-05T12:51:27.930Z,9.15
2022-10-05T12:54:00.962Z,10.72
2022-10-05T12:56:32.973Z,8.63
2022-10-05T12:59:05.512Z,5.53
2022-10-05T13:01:38.631Z,8.70
2022-10-05T13:04:11.696Z,7.03
2022-10-05T13:06:41.708Z,7.47
2022-10-05T13:09:14.854Z,9.30
2022-10-05T13:11:48.026Z,8.80
2022-10-05T13:14:19.459Z,9.43
2022-10-05T13:16:54.923Z,7.30
2022-10-05T13:19:24.803Z,6.72
2022-10-05T13:21:57.943Z,8.33
2022-10-05T13:24:31.009Z,11.33
2022-10-05T13:27:02.543Z,11.10
2022-10-05T13:29:35.626Z,11.33
2022-10-05T13:32:08.804Z,12.18
2022-10-05T13:34:41.884Z,10.72
2022-10-05T13:37:14.965Z,9.93
2022-10-05T13:39:49.929Z,18.60
2022-10-05T13:42:21.451Z,10.65
2022-10-05T13:44:55.989Z,10.85
2022-10-05T13:47:29.849Z,13.48
2022-10-05T13:50:04.805Z,13.65
2022-10-05T13:52:39.461Z,14.03
2022-10-05T13:55:10.978Z,17.15
2022-10-05T13:57:47.435Z,10.58
2022-10-05T14:00:22.611Z,11.33
2022-10-05T14:02:54.304Z,15.13
2022-10-05T14:05:28.069Z,12.85
2022-10-05T14:08:01.174Z,10.53
2022-10-05T14:10:32.796Z,12.58
2022-10-05T14:13:06.237Z,13.95
2022-10-05T14:15:41.975Z,11.88
2022-10-05T14:18:11.844Z,12.25
2022-10-05T14:20:45.504Z,13.62
2022-10-05T14:23:22.363Z,12.65
2022-10-05T14:25:54.742Z,12.80
2022-10-05T14:28:31.966Z,16.12
2022-10-05T14:31:02.010Z,13.15
2022-10-05T14:33:35.054Z,12.07
2022-10-05T14:36:08.165Z,15.28
2022-10-05T14:38:41.226Z,11.83
2022-10-05T14:41:25.854Z,14.03
2022-10-05T14:44:01.966Z,15.68
2022-10-05T14:46:55.575Z,9.03
2022-10-05T14:49:30.756Z,12.40
2022-10-05T14:52:01.537Z,10.82
2022-10-05T14:54:34.684Z,12.13
2022-10-05T14:57:07.838Z,15.55
2022-10-05T14:59:39.281Z,11.83
2022-10-05T15:02:13.657Z,14.23
2022-10-05T15:04:46.788Z,12.70
2022-10-05T15:07:16.786Z,13.60
2022-10-05T15:09:56.759Z,11.80
2022-10-05T15:12:30.999Z,11.60
2022-10-05T15:15:06.974Z,10.78
2022-10-05T15:17:40.008Z,13.38
2022-10-05T15:20:17.096Z,14.38
2022-10-05T15:22:50.120Z,13.78
2022-10-05T15:25:24.194Z,15.38
2022-10-05T15:27:57.348Z,23.70
2022-10-05T15:30:27.984Z,16.35
2022-10-05T15:33:01.103Z,18.62
2022-10-05T15:35:37.160Z,17.25
2022-10-05T15:38:10.216Z,19.90
2022-10-05T15:40:43.232Z,18.77
2022-10-05T15:43:17.963Z,15.05
2022-10-05T15:45:54.264Z,14.50
2022-10-05T15:48:29.109Z,17.65
2022-10-05T15:51:02.200Z,17.17
2022-10-05T15:53:35.259Z,21.90
2022-10-05T15:56:06.685Z,16.55
2022-10-05T15:58:40.165Z,13.75
2022-10-05T16:01:13.441Z,13.78
2022-10-05T16:03:44.937Z,14.13
2022-10-05T16:06:22.310Z,18.15
2022-10-05T16:08:55.124Z,18.45
2022-10-05T16:11:28.292Z,17.32
2022-10-05T16:14:01.428Z,19.07
2022-10-05T16:16:34.506Z,16.57
2022-10-05T16:19:07.516Z,18.57
2022-10-05T16:21:41.898Z,18.05
2022-10-05T16:24:11.870Z,17.95
2022-10-05T16:26:44.916Z,15.05
2022-10-05T16:29:18.086Z,15.80
2022-10-05T16:31:48.318Z,13.13
2022-10-05T16:34:21.404Z,14.58
2022-10-05T16:36:51.511Z,17.85
2022-10-05T16:39:22.964Z,14.45
2022-10-05T16:41:57.947Z,12.75
2022-10-05T16:44:33.711Z,16.17
2022-10-05T16:47:06.903Z,14.25
2022-10-05T16:49:41.301Z,12.40
2022-10-05T16:52:16.205Z,14.63
2022-10-05T16:54:49.253Z,14.93
2022-10-05T16:57:22.282Z,13.35
2022-10-05T17:00:15.525Z,19.62
2022-10-05T17:02:31.061Z,11.97
2022-10-05T17:05:04.136Z,14.58
2022-10-05T17:07:36.178Z,17.95
2022-10-05T17:10:09.208Z,14.85
2022-10-05T17:12:43.446Z,15.32
2022-10-05T17:15:16.453Z,12.75
2022-10-05T17:17:50.329Z,11.83
2022-10-05T17:20:24.283Z,18.27
2022-10-05T17:22:56.688Z,18.45
2022-10-05T17:25:29.689Z,14.58
2022-10-05T17:28:02.892Z,13.50
2022-10-05T17:30:35.969Z,16.07
2022-10-05T17:33:09.075Z,15.38
2022-10-05T17:35:45.068Z,16.25
2022-10-05T17:38:18.999Z,10.20
2022-10-05T17:40:53.698Z,16.50
2022-10-05T17:43:26.498Z,16.55
2022-10-05T17:46:01.638Z,11.48
2022-10-05T17:48:34.689Z,12.58
2022-10-05T17:51:07.916Z,14.95
2022-10-05T17:53:40.576Z,10.95
2022-10-05T17:56:11.401Z,15.83
2022-10-05T17:58:44.858Z,17.48
2022-10-05T18:01:18.227Z,16.07
2022-10-05T18:03:51.395Z,13.38
2022-10-05T18:06:25.444Z,16.70
2022-10-05T18:08:58.442Z,16.27
2022-10-05T18:11:31.589Z,12.20
2022-10-05T18:14:04.606Z,14.63
2022-10-05T18:16:37.677Z,13.88
2022-10-05T18:19:10.825Z,16.70
2022-10-05T18:21:44.276Z,11.15
2022-10-05T18:24:15.789Z,10.03
2022-10-05T18:26:47.348Z,13.18
2022-10-05T18:29:20.155Z,14.45
2022-10-05T18:31:53.237Z,15.90
2022-10-05T18:34:27.383Z,13.10
2022-10-05T18:37:00.435Z,11.55
2022-10-05T18:39:31.874Z,13.58
2022-10-05T18:42:03.388Z,12.30
2022-10-05T18:44:36.836Z,13.20
2022-10-05T18:47:10.051Z,12.25
2022-10-05T18:49:43.480Z,12.07
2022-10-05T18:52:16.515Z,13.43
2022-10-05T18:54:48.170Z,10.75
2022-10-05T18:57:21.265Z,10.03
2022-10-05T18:59:54.281Z,11.68
2022-10-05T19:02:27.584Z,12.73
2022-10-05T19:05:00.970Z,10.58
2022-10-05T19:07:34.409Z,12.07
2022-10-05T19:10:05.880Z,10.08
2022-10-05T19:12:41.419Z,9.18
2022-10-05T19:15:11.779Z,9.55
2022-10-05T19:17:44.820Z,11.63
2022-10-05T19:20:15.277Z,12.95
2022-10-05T19:22:48.607Z,8.65
2022-10-05T19:25:18.550Z,10.63
2022-10-05T19:27:55.168Z,10.15
2022-10-05T19:30:26.281Z,10.32
2022-10-05T19:32:59.282Z,10.00
2022-10-05T19:35:32.476Z,7.17
2022-10-05T19:38:06.049Z,8.33
2022-10-05T19:40:39.977Z,8.80
2022-10-05T19:43:13.029Z,8.58
2022-10-05T19:45:46.071Z,7.35
2022-10-05T19:48:20.203Z,7.05
2022-10-05T19:50:53.649Z,7.25
2022-10-05T19:53:26.781Z,9.20
2022-10-05T19:55:57.592Z,6.37
2022-10-05T19:58:30.838Z,8.40
2022-10-05T20:01:05.631Z,8.93
2022-10-05T20:03:39.152Z,8.45
2022-10-05T20:06:12.219Z,10.50
2022-10-05T20:08:45.236Z,7.62
2022-10-05T20:11:16.768Z,8.68
2022-10-05T20:13:48.407Z,8.25
2022-10-05T20:16:19.833Z,6.17
2022-10-05T20:18:53.167Z,8.70
2022-10-05T20:21:26.201Z,7.60
2022-10-05T20:23:59.239Z,6.53
2022-10-05T20:26:33.671Z,8.53
2022-10-05T20:29:04.500Z,9.33
2022-10-05T20:31:35.155Z,7.05
2022-10-05T20:34:06.487Z,9.65
2022-10-05T20:36:37.165Z,9.40
2022-10-05T20:39:07.778Z,7.33
2022-10-05T20:41:38.351Z,8.65
2022-10-05T20:44:08.940Z,7.35
2022-10-05T20:46:41.094Z,8.25
2022-10-05T20:49:13.739Z,6.72
2022-10-05T20:51:44.485Z,6.58
2022-10-05T20:54:16.345Z,7.90
2022-10-05T20:56:47.241Z,6.87
2022-10-05T20:59:18.818Z,7.55
2022-10-05T21:01:49.638Z,8.90
2022-10-05T21:04:23.064Z,9.60
2022-10-05T21:06:54.119Z,6.05
2022-10-05T21:09:24.653Z,7.42
2022-10-05T21:11:56.553Z,7.10
2022-10-05T21:14:28.704Z,12.75
2022-10-05T21:16:59.199Z,7.33
2022-10-05T21:19:30.514Z,9.58
2022-10-05T21:22:02.445Z,8.00
2022-10-05T21:24:32.923Z,7.00
2022-10-05T21:27:04.221Z,8.15
2022-10-05T21:29:35.520Z,10.85
2022-10-05T21:32:08.110Z,9.43
2022-10-05T21:34:39.120Z,10.40
2022-10-05T21:37:10.839Z,7.12
2022-10-05T21:39:41.418Z,7.40
2022-10-05T21:42:11.922Z,9.75
2022-10-05T21:44:42.504Z,7.53
2022-10-05T21:47:13.399Z,8.60
2022-10-05T21:49:44.581Z,9.45
2022-10-05T21:52:15.477Z,10.68
2022-10-05T21:54:48.029Z,7.85
2022-10-05T21:57:20.097Z,8.35
2022-10-05T21:59:57.206Z,10.05
2022-10-05T22:02:28.366Z,6.53
2022-10-05T22:04:59.239Z,7.33
2022-10-05T22:07:30.416Z,7.83
2022-10-05T22:10:02.301Z,6.75
2022-10-05T22:12:33.262Z,5.85
2022-10-05T22:15:04.120Z,6.15
2022-10-05T22:17:35.517Z,9.18
2022-10-05T22:20:07.319Z,6.70
2022-10-05T22:22:37.839Z,6.87
2022-10-05T22:25:09.320Z,6.33
2022-10-05T22:27:40.324Z,10.05
2022-10-05T22:30:11.420Z,6.62
2022-10-05T22:32:42.118Z,7.95
2022-10-05T22:35:13.535Z,6.15
2022-10-05T22:37:44.107Z,9.10
2022-10-05T22:40:15.015Z,9.03
2022-10-05T22:42:45.549Z,8.43
2022-10-05T22:45:16.240Z,6.83
2022-10-05T22:47:47.052Z,9.53
2022-10-05T22:50:17.831Z,10.63
2022-10-05T22:52:49.605Z,8.95
2022-10-05T22:55:20.555Z,7.47
2022-10-05T22:57:51.032Z,8.03
2022-10-05T23:00:27.599Z,7.53
2022-10-05T23:02:53.861Z,7.40
2022-10-05T23:05:24.370Z,6.67
2022-10-05T23:07:54.937Z,8.60
2022-10-05T23:10:26.811Z,6.85
2022-10-05T23:13:00.973Z,7.58
2022-10-05T23:15:32.014Z,9.20
2022-10-05T23:18:02.922Z,9.23
2022-10-05T23:20:33.646Z,8.93
2022-10-05T23:23:04.115Z,6.25
2022-10-05T23:25:34.884Z,9.48
2022-10-05T23:28:05.823Z,8.33
2022-10-05T23:30:36.462Z,9.53
2022-10-05T23:33:07.213Z,10.08
2022-10-05T23:35:37.720Z,7.62
2022-10-05T23:38:08.517Z,8.35
2022-10-05T23:40:39.109Z,8.63
2022-10-05T23:43:09.678Z,11.08
2022-10-05T23:45:40.357Z,8.63
2022-10-05T23:48:11.112Z,10.25
2022-10-05T23:50:41.946Z,9.00
2022-10-05T23:53:12.723Z,10.45
2022-10-05T23:55:43.291Z,7.97
2022-10-05T23:58:14.536Z,8.83
